Itacuruba, Brazil
Current Conditions -  °F | °C
As of 3:00 PM on Monday 20 Oct 2014 (Local Time) from SBJU Reporting Station
Scattered Clouds Scattered Clouds  
Wind Chill: 100°   Ceiling: Unl
Heat Index: 100°   Visibility: 6mi
Dew Point: 59°   Wind: 5mph
Humidity: 25%   Direction: 350°N
Pressure: 29.85"   Gusts: NA
Location:  8.81°S, 38.57°W
Report Text: SBJU 201800Z 35004KT 9999 SCT022 38/15 Q1011
Loading
Personal Weather Stations






























Interactive Weather Map
Tropical Storm Tracking
New forecast layout! Learn more

10-Day Weather Forecast

Advertisements
Track Severe Weather on mobile